TimeEST,TemperatureF,Dew PointF,Humidity,Sea Level PressureIn,VisibilityMPH,Wind Direction,Wind SpeedMPH,Gust SpeedMPH,PrecipitationIn,Events,Conditions,WindDirDegrees,DateUTC
12:15 AM,31.6,23.0,70,30.14,10.0,WSW,8.1,-,N/A,,Overcast,240,2013-01-04 05:15:00
12:34 AM,32.0,23.5,71,30.13,10.0,SW,8.1,-,N/A,,Overcast,230,2013-01-04 05:34:00
1:15 AM,31.5,24.8,76,30.12,10.0,SW,9.2,-,N/A,,Overcast,230,2013-01-04 06:15:00
1:34 AM,31.8,25.5,78,30.12,10.0,WSW,9.2,-,N/A,,Overcast,240,2013-01-04 06:34:00
1:54 AM,32.0,25.7,78,30.11,10.0,SW,9.2,-,N/A,,Overcast,230,2013-01-04 06:54:00
2:15 AM,32.0,26.2,79,30.10,10.0,SW,10.4,-,N/A,,Overcast,230,2013-01-04 07:15:00
2:34 AM,32.0,25.7,78,30.10,10.0,SW,9.2,-,N/A,,Overcast,230,2013-01-04 07:34:00
2:54 AM,32.2,25.0,75,30.10,10.0,WSW,11.5,20.7,N/A,,Overcast,240,2013-01-04 07:54:00
3:15 AM,32.0,24.8,75,30.10,10.0,WSW,11.5,18.4,N/A,,Overcast,250,2013-01-04 08:15:00
3:34 AM,32.0,24.6,74,30.10,10.0,WSW,9.2,21.9,N/A,,Overcast,240,2013-01-04 08:34:00
3:54 AM,32.0,25.2,76,30.10,10.0,SW,10.4,16.1,N/A,,Overcast,230,2013-01-04 08:54:00
4:15 AM,32.0,25.0,75,30.09,10.0,WSW,10.4,18.4,N/A,,Overcast,240,2013-01-04 09:15:00
4:34 AM,32.0,24.6,74,30.08,10.0,WSW,13.8,24.2,N/A,,Overcast,250,2013-01-04 09:34:00
4:55 AM,32.0,24.4,74,30.08,10.0,WSW,8.1,-,N/A,,Overcast,240,2013-01-04 09:55:00
5:14 AM,32.0,24.3,73,30.08,10.0,WSW,13.8,21.9,N/A,,Overcast,240,2013-01-04 10:14:00
5:34 AM,32.0,23.7,71,30.07,10.0,WSW,16.1,23.0,N/A,,Overcast,240,2013-01-04 10:34:00
5:54 AM,32.0,23.4,70,30.07,10.0,WSW,10.4,20.7,N/A,,Overcast,250,2013-01-04 10:54:00
6:14 AM,32.0,23.4,70,30.07,10.0,WSW,13.8,20.7,N/A,,Overcast,240,2013-01-04 11:14:00
6:34 AM,32.0,23.0,69,30.07,10.0,WSW,9.2,24.2,N/A,,Overcast,240,2013-01-04 11:34:00
7:15 AM,31.6,22.6,69,30.08,10.0,WSW,11.5,23.0,N/A,,Overcast,250,2013-01-04 12:15:00
7:34 AM,31.1,22.5,70,30.08,10.0,WSW,16.1,20.7,N/A,,Mostly Cloudy,250,2013-01-04 12:34:00
8:15 AM,30.2,21.9,71,30.07,10.0,WSW,12.7,24.2,N/A,,Scattered Clouds,240,2013-01-04 13:15:00
8:34 AM,29.8,22.1,73,30.07,10.0,WSW,12.7,23.0,N/A,,Mostly Cloudy,240,2013-01-04 13:34:00
8:55 AM,29.3,22.1,75,30.08,10.0,WSW,15.0,20.7,N/A,,Overcast,240,2013-01-04 13:55:00
9:15 AM,28.9,21.6,74,30.08,10.0,WSW,16.1,24.2,N/A,,Overcast,240,2013-01-04 14:15:00
9:34 AM,28.4,21.0,74,30.08,10.0,WSW,13.8,25.3,N/A,,Overcast,240,2013-01-04 14:34:00
9:55 AM,28.4,20.8,73,30.08,10.0,WSW,15.0,25.3,N/A,,Mostly Cloudy,250,2013-01-04 14:55:00
10:14 AM,28.6,20.5,72,30.09,10.0,SW,15.0,20.7,N/A,,Scattered Clouds,230,2013-01-04 15:14:00
10:34 AM,29.5,20.3,69,30.09,10.0,WSW,18.4,26.5,N/A,,Mostly Cloudy,250,2013-01-04 15:34:00
10:55 AM,30.2,20.3,67,30.08,10.0,WSW,11.5,24.2,N/A,,Scattered Clouds,240,2013-01-04 15:55:00
11:14 AM,30.9,20.5,65,30.07,10.0,WSW,11.5,21.9,N/A,,Clear,250,2013-01-04 16:14:00
11:35 AM,31.6,20.5,63,30.07,10.0,West,17.3,21.9,N/A,,Clear,260,2013-01-04 16:35:00
11:54 AM,32.0,20.5,63,30.06,10.0,West,16.1,28.8,N/A,,Clear,260,2013-01-04 16:54:00
12:14 PM,32.2,20.3,62,30.05,10.0,WSW,15.0,24.2,N/A,,Clear,250,2013-01-04 17:14:00
12:35 PM,32.4,20.5,62,30.05,10.0,West,12.7,26.5,N/A,,Clear,260,2013-01-04 17:35:00
12:54 PM,32.7,20.5,61,30.03,10.0,SW,15.0,23.0,N/A,,Clear,230,2013-01-04 17:54:00
1:15 PM,32.4,20.5,62,30.02,10.0,WSW,16.1,26.5,N/A,,Clear,240,2013-01-04 18:15:00
1:34 PM,32.0,20.3,62,30.02,10.0,SW,17.3,27.6,N/A,,Clear,230,2013-01-04 18:34:00
1:55 PM,32.7,20.7,61,30.01,10.0,WSW,15.0,25.3,N/A,,Clear,240,2013-01-04 18:55:00
2:14 PM,33.3,20.8,60,30.00,10.0,SW,20.7,27.6,N/A,,Clear,230,2013-01-04 19:14:00
2:34 PM,33.6,20.5,59,30.01,10.0,WSW,16.1,27.6,N/A,,Clear,240,2013-01-04 19:34:00
2:55 PM,34.5,20.8,57,30.01,10.0,WSW,16.1,25.3,N/A,,Clear,240,2013-01-04 19:55:00
3:14 PM,34.7,20.8,57,30.02,10.0,WSW,17.3,24.2,N/A,,Clear,250,2013-01-04 20:14:00
3:34 PM,34.7,20.5,56,30.02,10.0,WSW,13.8,26.5,N/A,,Clear,240,2013-01-04 20:34:00
3:54 PM,34.0,20.7,58,30.02,10.0,WSW,13.8,26.5,N/A,,Clear,240,2013-01-04 20:54:00
4:14 PM,33.8,20.7,59,30.03,10.0,SW,16.1,21.9,N/A,,Clear,230,2013-01-04 21:14:00
4:35 PM,33.8,20.3,58,30.04,10.0,WSW,12.7,21.9,N/A,,Clear,250,2013-01-04 21:35:00
4:54 PM,32.9,19.6,58,30.04,10.0,WSW,13.8,26.5,N/A,,Clear,240,2013-01-04 21:54:00
5:14 PM,32.0,19.4,60,30.05,10.0,WSW,12.7,18.4,N/A,,Clear,240,2013-01-04 22:14:00
5:34 PM,32.0,19.4,60,30.06,10.0,WSW,11.5,-,N/A,,Clear,240,2013-01-04 22:34:00
5:54 PM,31.8,19.8,61,30.07,10.0,West,11.5,24.2,N/A,,Clear,260,2013-01-04 22:54:00
6:15 PM,31.5,19.6,62,30.09,10.0,WSW,10.4,17.3,N/A,,Clear,250,2013-01-04 23:15:00
6:34 PM,31.5,19.9,62,30.09,10.0,WSW,9.2,19.6,N/A,,Clear,250,2013-01-04 23:34:00
6:54 PM,30.9,19.9,64,30.10,10.0,WSW,9.2,16.1,N/A,,Clear,250,2013-01-04 23:54:00
7:15 PM,30.7,20.1,65,30.10,10.0,WSW,10.4,16.1,N/A,,Clear,250,2013-01-05 00:15:00
7:34 PM,30.9,20.3,65,30.10,10.0,WSW,10.4,20.7,N/A,,Clear,240,2013-01-05 00:34:00
7:54 PM,30.0,20.3,67,30.11,10.0,SW,11.5,17.3,N/A,,Clear,230,2013-01-05 00:54:00
8:14 PM,29.7,20.1,68,30.12,10.0,SW,11.5,18.4,N/A,,Clear,230,2013-01-05 01:14:00
8:34 PM,29.3,20.3,69,30.13,10.0,WSW,13.8,18.4,N/A,,Clear,240,2013-01-05 01:34:00
8:54 PM,29.3,20.3,69,30.13,10.0,WSW,9.2,-,N/A,,Clear,240,2013-01-05 01:54:00
9:14 PM,29.1,20.3,70,30.13,10.0,WSW,10.4,-,N/A,,Clear,240,2013-01-05 02:14:00
9:35 PM,28.9,20.7,71,30.14,10.0,WSW,11.5,-,N/A,,Clear,240,2013-01-05 02:35:00
9:54 PM,28.8,20.8,72,30.15,10.0,WSW,8.1,-,N/A,,Clear,250,2013-01-05 02:54:00
10:34 PM,28.4,21.2,74,30.17,10.0,WSW,6.9,-,N/A,,Clear,250,2013-01-05 03:34:00
10:54 PM,28.4,21.2,74,30.17,10.0,WSW,5.8,-,N/A,,Clear,250,2013-01-05 03:54:00
11:15 PM,28.2,21.6,76,30.17,10.0,WSW,6.9,-,N/A,,Clear,250,2013-01-05 04:15:00
11:34 PM,28.2,21.7,77,30.18,10.0,West,6.9,-,N/A,,Clear,260,2013-01-05 04:34:00
11:55 PM,27.9,21.7,78,30.18,10.0,West,8.1,-,N/A,,Clear,260,2013-01-05 04:55:00